Last 24 Hours

BDVWA

Hourly Data | America/Los_Angeles
as of 8/31/26 2:15 PM PDT
Date & Time Temp (°F) RH (%) Dew Pt (°F) Wind Dir (°) Wind Spd (mph) Wind Gust (mph) Wind Gst Dir (°) Pressure (mb) Barometric Press (inHg) Soil Temp (°F) Solar Rad (W/m2) Latest Rain (In) Daily Rain (In) Daily Min Temp (°F) Daily Max Temp (°F) Daily Max Wind (mph) Daily ETo (in)
8/31/26 - 1400 86.8 28 49.3 S | 173 13.6 27.4 SSE | 154 1,006.5 29.69 93.0 928 0.00 0.00 65.3 88.6 27.4 0.172
8/31/26 - 1300 85.9 28 49.4 S | 169 11.2 22.4 SSE | 148 1,007.4 29.72 93.2 942 0.00 0.00 65.3 86.9 22.4 0.139
8/31/26 - 1200 85.4 30 50.4 S | 179 8.6 21.5 S | 186 1,007.9 29.73 93.4 895 0.00 0.00 65.3 86.7 21.5 0.106
8/31/26 - 1100 82.8 26 44.0 E | 88 5.1 12.1 SSW | 197 1,008.8 29.76 93.6 790 0.00 0.00 65.3 84.9 12.1 0.076
8/31/26 - 1000 80.6 26 42.9 E | 95 4.1 10.5 E | 93 1,009.2 29.77 93.8 630 0.00 0.00 65.3 81.7 10.5 0.051
8/31/26 - 0900 79.1 27 42.7 SE | 130 3.2 8.3 E | 91 1,009.3 29.77 94.0 428 0.00 0.00 65.3 80.1 8.8 0.032
8/31/26 - 0800 74.6 31 41.9 WSW | 256 3.6 7.2 WSW | 248 1,009.9 29.79 94.1 207 0.00 0.00 65.3 78.4 8.8 0.020
8/31/26 - 0700 68.1 36 40.2 W | 269 5.8 8.8 W | 259 1,010.7 29.82 94.3 35 0.00 0.00 65.3 70.0 8.8 0.013
8/31/26 - 0600 67.5 37 40.1 W | 265 5.5 8.8 W | 265 1,010.5 29.81 94.4 0 0.00 0.00 65.3 69.6 8.8 0.010
8/31/26 - 0500 66.8 38 40.8 W | 262 4.9 8.8 W | 270 1,010.4 29.81 94.5 0 0.00 0.00 65.3 69.6 8.8 0.008
8/31/26 - 0400 67.3 38 41.2 W | 261 4.7 7.0 W | 264 1,010.3 29.80 94.5 0 0.00 0.00 66.6 69.6 7.7 0.006
8/31/26 - 0300 67.6 39 41.7 W | 267 5.2 7.7 WSW | 254 1,010.2 29.80 94.5 0 0.00 0.00 66.6 69.6 7.7 0.004
8/31/26 - 0200 68.8 38 42.1 W | 265 4.5 6.6 W | 275 1,010.1 29.80 94.5 0 0.00 0.00 66.7 69.6 6.6 0.002
8/31/26 - 0100 71.0 37 43.4 WSW | 256 3.3 5.9 WSW | 256 1,009.7 29.79 94.5 0 0.00 0.00 69.3 93.5 31.8 0.303
8/31/26 - 0000 74.8 34 44.5 WNW | 299 3.8 6.8 W | 278 1,008.7 29.76 94.4 0 0.00 0.00 69.3 93.5 31.8 0.302
8/30/26 - 2300 77.5 37 49.4 WSW | 256 6.6 14.9 WSW | 242 1,007.9 29.73 94.3 0 0.00 0.00 69.3 93.5 31.8 0.300
8/30/26 - 2200 80.7 31 47.3 SSW | 206 10.7 21.0 S | 191 1,006.9 29.70 94.2 0 0.00 0.00 69.3 93.5 31.8 0.297
8/30/26 - 2100 80.7 36 50.8 SW | 236 6.3 13.2 S | 188 1,006.5 29.69 94.1 0 0.00 0.00 69.3 93.5 31.8 0.292
8/30/26 - 2000 84.4 29 48.6 SSW | 210 7.4 14.2 SW | 214 1,005.0 29.65 94.0 2 0.00 0.00 69.3 93.5 31.8 0.288
8/30/26 - 1900 87.3 25 47.6 SSW | 211 11.3 23.9 SW | 220 1,004.1 29.62 93.8 101 0.00 0.00 69.3 93.5 31.8 0.284
8/30/26 - 1800 89.6 23 46.8 SSW | 196 14.0 25.2 SSW | 204 1,003.6 29.61 93.8 314 0.00 0.00 69.3 93.5 31.8 0.271
8/30/26 - 1700 90.8 18 41.9 S | 190 15.7 31.8 SSW | 205 1,003.3 29.60 93.7 387 0.00 0.00 69.3 93.5 31.8 0.252
8/30/26 - 1600 92.1 21 46.4 S | 178 14.1 26.7 SSW | 208 1,003.6 29.61 93.7 708 0.00 0.00 69.3 93.5 26.7 0.227
8/30/26 - 1500 91.3 23 48.7 S | 178 12.9 25.9 S | 170 1,004.9 29.64 93.8 850 0.00 0.00 69.3 92.6 25.9 0.196
8/30/26 - 1400 90.3 24 49.0 SSE | 168 11.1 24.8 SSW | 205 1,006.0 29.68 93.9 922 0.00 0.00 69.3 91.6 24.8 0.162
Max 92.1 39 50.8 - 15.7 31.8 - 1,010.7 29.82 94.5 942 0.00 0.00 69.3 93.5 31.8 0.303
Avg 79.7 30 45.2 - 7.9 15.7 - 1,007.7 29.73 94.0 326 0.00 - - - - -
Min 66.8 18 40.1 - 3.2 5.9 - 1,003.3 29.60 93.0 0 0.00 0.00 65.3 69.6 6.6 0.002
Total - - - - - - - - - - - 0.00 - - - - -